Charlottesville, VA

11:15 PM EDT on September 19, 2014 (GMT -0400)
Off Hydraulic Road | Change Station
CLOSE
Current Station
Personal Weather Station
Location: Charlottesville, VA
Elevation: 558 ft
Nearby Weather Stations

Elev 558 ft 38.08 °N, 78.50 °W | Updated 10 seconds ago

Overcast
Overcast
62.7 °F
Feels Like 62.7 °F
N
0.0
Wind Variable Wind from North
Gusts 0.0 mph

Today
High -- | Low -- °F
--% Chance of Precip.
Yesterday
High -- | Low -- °F
Precip. -- in
6:59 AM 7:15 PM
Waning Crescent, 15% visible
Pressure 30.27 in
Visibility 10.0 miles
Clouds Scattered Clouds 4800 ft
Overcast 7500 ft
Dew Point 60 °F
Humidity 92%
Rainfall 0.00 in
Snow Depth Not available.
UV 0 out of 12
Pollen 5.60 out of 12
Air Quality Not available.
Flu Activity Not available.
METAR KCHO 200253Z 00000KT 10SM SCT048 OVC075 17/16 A3028 RMK AO2 SLP250 T01720156 51007

More Conditions Fewer Conditions

Pressure 30.27 in
Visibility 10.0 miles
Clouds Scattered Clouds 4800 ft
Overcast 7500 ft
Dew Point 60 °F
Humidity 92%
Rainfall 0.00 in
Snow Depth Not available.
UV 0 out of 12
Pollen 5.60 out of 12
Air Quality Not available.
Flu Activity Not available.
METAR KCHO 200253Z 00000KT 10SM SCT048 OVC075 17/16 A3028 RMK AO2 SLP250 T01720156 51007

More Conditions Fewer Conditions

10-Day Weather Forecast

Almanac

Astronomy

Sep. 19, 2014 Rise Set
Actual Time 6:59 AM EDT 7:15 PM EDT
Civil Twilight 6:32 AM EDT 7:41 PM EDT
Nautical Twilight 6:01 AM EDT 8:12 PM EDT
Astronomical Twilight 5:30 AM EDT 8:44 PM EDT
Moon 2:45 AM EDT (9/19) 4:40 PM EDT (9/19)
Length of Visible Light 13h 09m
Length of Day
12h 16m
Tomorrow will be 2m 25s shorter.
Waning Crescent, 15% of the Moon is Illuminated
Today
Waning Crescent
Sep 24
New
Oct 1
First Quarter
Oct 8
Full
Oct 15
Last Quarter

Today's Extremes

State Highs State Lows

Community

WunderPhotos

Upload Photos

1,754,775 photos uploaded!

WunderBlogs® & News

Nearby

Snow Depth

Station Depth Elevation
No new snow has been reported.

Earthquake Activity

City Distance Mag. Time & Date
No recent earthquake activity has been reported nearby.
Minimum magnitude displayed is 2.5.

Coastal Water Temperatures

Place Temperature
No Stations Reporting

Nearby Weather Stations